Wednesday, December 19, 2018, 10:02 AM CST
Back to Local

KT82, Fredericksburg, Gillespie County Airport

Location: Fredericksburg, TX, United States Lat: 30.244
Local Time: 10:02 AM CST (16:02 GMT) Lon: -98.909
Time Zone: US/Central Elev: 1696 ft

Show me the last for .
Show Decoded

2018-12-19 09:35 METAR KT82 191535Z AUTO 23007KT 10SM BKN011 BKN095 13/11 A2988 RMK AO2 T01260114
                 =
2018-12-19 09:15 METAR KT82 191515Z AUTO 23007KT 10SM OVC009 12/12 A2988 RMK AO2 T01230116 =
2018-12-19 08:55 METAR KT82 191455Z AUTO 22005KT 10SM OVC007 12/12 A2988 RMK AO2 T01230117 =
2018-12-19 08:35 METAR KT82 191435Z AUTO 00000KT 10SM OVC007 12/12 A2987 RMK AO2 T01200115 =
2018-12-19 08:15 METAR KT82 191415Z AUTO 00000KT 10SM TS BKN007 OVC015 12/11 A2987 RMK AO2
                 T01200113 =
2018-12-19 07:55 METAR KT82 191355Z AUTO 00000KT 7SM BKN009 BKN024 OVC070 12/11 A2987 RMK AO2
                 T01160110 =
2018-12-19 07:35 METAR KT82 191335Z AUTO 00000KT 7SM BKN007 BKN070 OVC085 12/11 A2987 RMK AO2 LTG
                 DSNT N T01160110 =
2018-12-19 07:15 METAR KT82 191315Z AUTO 00000KT 5SM BR OVC007 11/11 A2987 RMK AO2 T01140108 =
2018-12-19 06:55 METAR KT82 191255Z AUTO 00000KT 3SM BR OVC007 11/10 A2988 RMK AO2 T01100104 =
2018-12-19 06:35 METAR KT82 191235Z AUTO 00000KT 2 1/2SM -DZ OVC007 11/10 A2988 RMK AO2 T01090103
                 =
2018-12-19 06:15 METAR KT82 191215Z AUTO 00000KT 1 3/4SM BR OVC007 11/10 A2988 RMK AO2 T01060100
                 =
2018-12-19 05:55 METAR KT82 191155Z AUTO 00000KT 1 1/2SM -DZ OVC007 11/10 A2988 RMK AO2 T01060100
                 10110 20088 =
2018-12-19 05:35 METAR KT82 191135Z AUTO 00000KT 1SM BR OVC007 11/10 A2988 RMK AO2 T01050100 =
2018-12-19 05:15 METAR KT82 191115Z AUTO 00000KT 1/2SM FG OVC007 10/10 A2988 RMK AO2 T01040098 =
2018-12-19 04:55 METAR KT82 191055Z AUTO 00000KT 1/2SM FG OVC007 11/10 A2989 RMK AO2 T01050098 =
2018-12-19 04:35 METAR KT82 191035Z AUTO 00000KT 1/4SM FG OVC002 10/10 A2989 RMK AO2 T01020096 =
2018-12-19 04:15 METAR KT82 191015Z AUTO 00000KT 1/4SM FG OVC004 10/10 A2990 RMK AO2 T01020096 =
2018-12-19 03:55 METAR KT82 190955Z AUTO 00000KT 1/4SM FG OVC004 10/10 A2991 RMK AO2 T01020096 =
2018-12-19 03:35 METAR KT82 190935Z AUTO 00000KT 1/2SM FG OVC004 11/10 A2991 RMK AO2 T01050100 =
2018-12-19 03:15 METAR KT82 190915Z AUTO 00000KT 1/2SM FG OVC004 11/10 A2992 RMK AO2 T01060100 =
2018-12-19 02:55 METAR KT82 190855Z AUTO 00000KT 1/4SM FG OVC004 11/10 A2992 RMK AO2 LTG DSNT E
                 T01100102 =
2018-12-19 02:35 METAR KT82 190835Z AUTO 00000KT 1/4SM FG OVC002 11/10 A2992 RMK AO2 T01090101 =
2018-12-19 02:15 METAR KT82 190815Z AUTO 08003KT 1/4SM FG OVC002 11/10 A2991 RMK AO2 T01060100 =
2018-12-19 01:55 METAR KT82 190755Z AUTO 00000KT 1/4SM FG OVC002 10/10 A2992 RMK AO2 T01020095 =
2018-12-19 01:35 METAR KT82 190735Z AUTO 00000KT 1SM BR OVC002 10/09 A2992 RMK AO2 T01000090 =
2018-12-19 01:15 METAR KT82 190715Z AUTO 00000KT 5SM BR OVC002 10/09 A2993 RMK AO2 T00950085 =
2018-12-19 00:55 METAR KT82 190655Z AUTO 00000KT 7SM OVC004 09/08 A2994 RMK AO2 T00900079 =
2018-12-19 00:35 METAR KT82 190635Z AUTO 00000KT 10SM OVC004 09/08 A2995 RMK AO2 T00910080 =
2018-12-19 00:15 METAR KT82 190615Z AUTO 00000KT 10SM OVC004 09/08 A2995 RMK AO2 T00920082 =
2018-12-18 23:55 METAR KT82 190555Z AUTO 00000KT 10SM OVC004 09/08 A2995 RMK AO2 T00870077 10135
                 20066 401701004 =
2018-12-18 23:35 METAR KT82 190535Z AUTO 00000KT 10SM OVC004 08/07 A2996 RMK AO2 T00770067 =
2018-12-18 23:15 METAR KT82 190515Z AUTO 00000KT 10SM BKN006 OVC095 07/06 A2997 RMK AO2 T00700061
                 =
2018-12-18 22:55 METAR KT82 190455Z AUTO 00000KT 10SM BKN095 07/06 A2997 RMK AO2 LTG DSNT E
                 T00710061 =
2018-12-18 22:35 METAR KT82 190435Z AUTO 00000KT 10SM SCT095 07/06 A2997 RMK AO2 T00700059 =
2018-12-18 22:15 METAR KT82 190415Z AUTO 00000KT 10SM SCT095 07/06 A2997 RMK AO2 T00730061 =
2018-12-18 21:55 METAR KT82 190355Z AUTO 00000KT 10SM CLR 08/06 A2997 RMK AO2 T00800064 =
2018-12-18 21:35 METAR KT82 190335Z AUTO 00000KT 10SM CLR 09/07 A2997 RMK AO2 T00930066 =
2018-12-18 21:15 METAR KT82 190315Z AUTO 12003KT 10SM SCT100 10/07 A2997 RMK AO2 T01000074 =
2018-12-18 20:55 METAR KT82 190255Z AUTO 00000KT 10SM SCT100 SCT120 10/08 A2998 RMK AO2 T01040076
                 =
2018-12-18 20:35 METAR KT82 190235Z AUTO 27004KT 10SM SCT065 SCT080 SCT090 11/08 A2999 RMK AO2
                 T01120079 =
2018-12-18 20:15 METAR KT82 190215Z AUTO 09004KT 10SM RA SCT065 SCT080 OVC090 12/08 A2997 RMK AO2
                 T01160078 =
2018-12-18 19:55 METAR KT82 190155Z AUTO 00000KT 10SM OVC090 12/08 A2999 RMK AO2 T01200077 =
2018-12-18 19:35 METAR KT82 190135Z AUTO 11004KT 10SM BKN090 OVC120 12/08 A2997 RMK AO2 T01220077
                 =
2018-12-18 19:15 METAR KT82 190115Z AUTO 00000KT 10SM SCT070 SCT090 BKN110 12/08 A2998 RMK AO2
                 T01220080 =
2018-12-18 18:55 METAR KT82 190055Z AUTO 00000KT 10SM -RA BKN100 13/08 A2999 RMK AO2 T01260075 =
2018-12-18 18:35 METAR KT82 190035Z AUTO 23003KT 10SM BKN110 13/07 A2999 RMK AO2 T01270074 =
2018-12-18 18:15 METAR KT82 190015Z AUTO 00000KT 10SM BKN110 13/07 A2998 RMK AO2 T01310071 =
2018-12-18 17:55 METAR KT82 182355Z AUTO 00000KT 10SM BKN110 14/07 A2997 RMK AO2 T01370073 10170
                 20136 =
2018-12-18 17:35 METAR KT82 182335Z AUTO 00000KT 10SM SCT039 BKN110 14/07 A2997 RMK AO2 T01400072
                 =
2018-12-18 17:15 METAR KT82 182315Z AUTO 22003KT 10SM BKN110 15/07 A2997 RMK AO2 T01450071 =
2018-12-18 16:55 METAR KT82 182255Z AUTO 21005KT 10SM CLR 15/07 A2997 RMK AO2 T01460073 =
2018-12-18 16:35 METAR KT82 182235Z AUTO 20007KT 10SM SCT120 15/07 A2996 RMK AO2 T01520072 =
2018-12-18 16:15 METAR KT82 182215Z AUTO 20008KT 10SM SCT120 15/07 A2996 RMK AO2 T01530066 =
2018-12-18 15:55 METAR KT82 182155Z AUTO 20007KT 10SM SCT040 OVC120 16/07 A2996 RMK AO2 T01560068
                 =
2018-12-18 15:35 METAR KT82 182135Z AUTO 21009KT 10SM BKN038 16/07 A2996 RMK AO2 T01590067 =
2018-12-18 15:15 METAR KT82 182115Z AUTO 22011KT 10SM SCT036 17/07 A2996 RMK AO2 T01670071 =
2018-12-18 14:55 METAR KT82 182055Z AUTO 20008KT 10SM SCT036 17/07 A2996 RMK AO2 T01660071 =
2018-12-18 14:35 METAR KT82 182035Z AUTO 18013KT 10SM SCT036 17/07 A2996 RMK AO2 T01670070 =
2018-12-18 14:15 METAR KT82 182015Z AUTO 20013G16KT 10SM SCT034 17/07 A2996 RMK AO2 T01680074 =
2018-12-18 13:55 METAR KT82 181955Z AUTO 20013G16KT 10SM SCT032 17/08 A2997 RMK AO2 T01670077 =
2018-12-18 13:35 METAR KT82 181935Z AUTO 21009G17KT 10SM SCT032 17/08 A2998 RMK AO2 T01680078 =
2018-12-18 13:15 METAR KT82 181915Z AUTO 21008KT 10SM SCT032 17/08 A2999 RMK AO2 T01670078 =
2018-12-18 12:55 METAR KT82 181855Z AUTO 21008KT 10SM CLR 17/07 A3001 RMK AO2 T01660069 =
2018-12-18 12:35 METAR KT82 181835Z AUTO 20007KT 10SM CLR 17/07 A3002 RMK AO2 T01660068 =
2018-12-18 12:15 METAR KT82 181815Z AUTO 19007KT 10SM CLR 16/06 A3004 RMK AO2 T01580056 =
2018-12-18 11:55 METAR KT82 181755Z AUTO 16008G14KT 10SM CLR 16/06 A3004 RMK AO2 T01550057 10155
                 20025 =
2018-12-18 11:35 METAR KT82 181735Z AUTO 15007KT 10SM CLR 15/05 A3004 RMK AO2 T01510047 =
2018-12-18 11:15 METAR KT82 181715Z AUTO 16007KT 10SM CLR 14/06 A3006 RMK AO2 T01440058 =
2018-12-18 10:55 METAR KT82 181655Z AUTO 16008KT 10SM CLR 14/06 A3009 RMK AO2 T01390063 =
2018-12-18 10:35 METAR KT82 181635Z AUTO 00000KT 10SM CLR 12/09 A3010 RMK AO2 T01190085 =
2018-12-18 10:15 METAR KT82 181615Z AUTO 22004KT 10SM CLR 11/09 A3011 RMK AO2 T01120087 =

Support USWX by starting your Amazon purchase here.